sensor_id;sensor_type;location;lat;lon;timestamp;P1;durP1;ratioP1;P2;durP2;ratioP2
14076;SDS011;7114;51.100;13.998;2023-05-01T00:01:23;81.70;;;40.40;;
14076;SDS011;7114;51.100;13.998;2023-05-01T00:03:51;80.57;;;42.42;;
14076;SDS011;7114;51.100;13.998;2023-05-01T00:06:18;79.30;;;43.78;;
14076;SDS011;7114;51.100;13.998;2023-05-01T00:08:44;87.53;;;46.47;;
14076;SDS011;7114;51.100;13.998;2023-05-01T00:11:11;94.00;;;48.55;;
14076;SDS011;7114;51.100;13.998;2023-05-01T00:13:37;97.53;;;49.83;;
14076;SDS011;7114;51.100;13.998;2023-05-01T00:16:06;103.00;;;51.63;;
14076;SDS011;7114;51.100;13.998;2023-05-01T00:18:33;99.05;;;50.05;;
14076;SDS011;7114;51.100;13.998;2023-05-01T00:21:00;98.10;;;48.03;;
14076;SDS011;7114;51.100;13.998;2023-05-01T00:23:27;91.05;;;46.65;;
14076;SDS011;7114;51.100;13.998;2023-05-01T00:25:53;90.15;;;45.08;;
14076;SDS011;7114;51.100;13.998;2023-05-01T00:28:19;84.22;;;44.03;;
14076;SDS011;7114;51.100;13.998;2023-05-01T00:30:45;92.65;;;46.42;;
14076;SDS011;7114;51.100;13.998;2023-05-01T00:33:12;101.27;;;49.97;;
14076;SDS011;7114;51.100;13.998;2023-05-01T00:35:38;109.55;;;53.38;;
14076;SDS011;7114;51.100;13.998;2023-05-01T00:38:06;110.43;;;56.70;;
14076;SDS011;7114;51.100;13.998;2023-05-01T00:40:40;118.97;;;58.08;;
14076;SDS011;7114;51.100;13.998;2023-05-01T00:43:06;121.10;;;60.08;;
14076;SDS011;7114;51.100;13.998;2023-05-01T00:45:32;115.67;;;59.07;;
14076;SDS011;7114;51.100;13.998;2023-05-01T00:47:59;129.23;;;59.40;;
14076;SDS011;7114;51.100;13.998;2023-05-01T00:50:26;119.65;;;57.70;;
14076;SDS011;7114;51.100;13.998;2023-05-01T00:52:52;111.88;;;55.47;;
14076;SDS011;7114;51.100;13.998;2023-05-01T00:55:19;112.82;;;55.35;;
14076;SDS011;7114;51.100;13.998;2023-05-01T00:57:46;118.60;;;56.27;;
14076;SDS011;7114;51.100;13.998;2023-05-01T01:00:13;121.80;;;59.25;;
14076;SDS011;7114;51.100;13.998;2023-05-01T01:02:40;123.35;;;64.28;;
14076;SDS011;7114;51.100;13.998;2023-05-01T01:05:07;133.48;;;65.38;;
14076;SDS011;7114;51.100;13.998;2023-05-01T01:07:35;138.88;;;69.32;;
14076;SDS011;7114;51.100;13.998;2023-05-01T01:10:08;139.77;;;68.63;;
14076;SDS011;7114;51.100;13.998;2023-05-01T01:12:45;142.45;;;70.53;;
14076;SDS011;7114;51.100;13.998;2023-05-01T01:15:17;139.50;;;72.03;;
14076;SDS011;7114;51.100;13.998;2023-05-01T01:17:50;148.52;;;73.45;;
14076;SDS011;7114;51.100;13.998;2023-05-01T01:20:20;141.68;;;74.75;;
14076;SDS011;7114;51.100;13.998;2023-05-01T01:22:52;139.53;;;73.03;;
14076;SDS011;7114;51.100;13.998;2023-05-01T01:25:32;145.48;;;74.85;;
14076;SDS011;7114;51.100;13.998;2023-05-01T01:28:23;138.93;;;69.80;;
14076;SDS011;7114;51.100;13.998;2023-05-01T01:31:04;137.88;;;71.40;;
14076;SDS011;7114;51.100;13.998;2023-05-01T01:33:41;142.77;;;72.10;;
14076;SDS011;7114;51.100;13.998;2023-05-01T01:36:15;146.70;;;74.93;;
14076;SDS011;7114;51.100;13.998;2023-05-01T01:38:44;149.88;;;75.95;;
14076;SDS011;7114;51.100;13.998;2023-05-01T01:41:12;144.32;;;75.97;;
14076;SDS011;7114;51.100;13.998;2023-05-01T01:43:42;141.13;;;73.20;;
14076;SDS011;7114;51.100;13.998;2023-05-01T01:46:10;137.52;;;70.80;;
14076;SDS011;7114;51.100;13.998;2023-05-01T01:48:37;129.40;;;65.87;;
14076;SDS011;7114;51.100;13.998;2023-05-01T01:51:09;126.18;;;65.22;;
14076;SDS011;7114;51.100;13.998;2023-05-01T01:53:38;120.78;;;66.20;;
14076;SDS011;7114;51.100;13.998;2023-05-01T01:56:05;136.35;;;68.35;;
14076;SDS011;7114;51.100;13.998;2023-05-01T01:58:33;131.55;;;66.72;;
14076;SDS011;7114;51.100;13.998;2023-05-01T02:01:00;137.17;;;69.30;;
14076;SDS011;7114;51.100;13.998;2023-05-01T02:03:27;131.52;;;69.40;;
14076;SDS011;7114;51.100;13.998;2023-05-01T02:05:54;135.00;;;69.47;;
14076;SDS011;7114;51.100;13.998;2023-05-01T02:08:22;136.50;;;70.68;;
14076;SDS011;7114;51.100;13.998;2023-05-01T02:10:49;146.20;;;77.30;;
14076;SDS011;7114;51.100;13.998;2023-05-01T02:13:21;147.50;;;74.93;;
14076;SDS011;7114;51.100;13.998;2023-05-01T02:15:48;144.00;;;74.43;;
14076;SDS011;7114;51.100;13.998;2023-05-01T02:18:15;141.00;;;74.82;;
14076;SDS011;7114;51.100;13.998;2023-05-01T02:20:42;143.75;;;74.22;;
14076;SDS011;7114;51.100;13.998;2023-05-01T02:23:09;146.52;;;75.90;;
14076;SDS011;7114;51.100;13.998;2023-05-01T02:25:37;139.73;;;73.00;;
14076;SDS011;7114;51.100;13.998;2023-05-01T02:28:05;135.77;;;69.82;;
14076;SDS011;7114;51.100;13.998;2023-05-01T02:30:34;131.10;;;70.75;;
14076;SDS011;7114;51.100;13.998;2023-05-01T02:33:01;141.35;;;70.85;;
14076;SDS011;7114;51.100;13.998;2023-05-01T02:35:28;137.82;;;70.90;;
14076;SDS011;7114;51.100;13.998;2023-05-01T02:37:54;138.37;;;71.03;;
14076;SDS011;7114;51.100;13.998;2023-05-01T02:40:21;139.55;;;72.25;;
14076;SDS011;7114;51.100;13.998;2023-05-01T02:42:49;137.73;;;72.80;;
14076;SDS011;7114;51.100;13.998;2023-05-01T02:45:17;138.15;;;71.47;;
14076;SDS011;7114;51.100;13.998;2023-05-01T02:47:45;140.38;;;71.93;;
14076;SDS011;7114;51.100;13.998;2023-05-01T02:50:13;135.23;;;69.10;;
14076;SDS011;7114;51.100;13.998;2023-05-01T02:52:40;131.15;;;68.47;;
14076;SDS011;7114;51.100;13.998;2023-05-01T02:55:07;138.75;;;68.20;;
14076;SDS011;7114;51.100;13.998;2023-05-01T02:57:34;126.25;;;65.88;;
14076;SDS011;7114;51.100;13.998;2023-05-01T03:00:02;126.28;;;66.18;;
14076;SDS011;7114;51.100;13.998;2023-05-01T03:02:28;123.73;;;63.27;;
14076;SDS011;7114;51.100;13.998;2023-05-01T03:04:54;114.45;;;61.72;;
14076;SDS011;7114;51.100;13.998;2023-05-01T03:07:21;111.95;;;59.35;;
14076;SDS011;7114;51.100;13.998;2023-05-01T03:09:47;110.20;;;56.63;;
14076;SDS011;7114;51.100;13.998;2023-05-01T03:12:13;111.80;;;55.65;;
14076;SDS011;7114;51.100;13.998;2023-05-01T03:14:40;102.30;;;53.73;;
14076;SDS011;7114;51.100;13.998;2023-05-01T03:17:07;108.43;;;54.55;;
14076;SDS011;7114;51.100;13.998;2023-05-01T03:19:34;108.30;;;53.88;;
14076;SDS011;7114;51.100;13.998;2023-05-01T03:22:01;107.30;;;52.65;;
14076;SDS011;7114;51.100;13.998;2023-05-01T03:24:28;103.25;;;52.95;;
14076;SDS011;7114;51.100;13.998;2023-05-01T03:26:54;106.07;;;50.90;;
14076;SDS011;7114;51.100;13.998;2023-05-01T03:29:20;105.25;;;51.13;;
14076;SDS011;7114;51.100;13.998;2023-05-01T03:31:46;113.43;;;54.17;;
14076;SDS011;7114;51.100;13.998;2023-05-01T03:34:14;118.07;;;56.45;;
14076;SDS011;7114;51.100;13.998;2023-05-01T03:36:40;117.10;;;60.53;;
14076;SDS011;7114;51.100;13.998;2023-05-01T03:39:06;113.43;;;60.70;;
14076;SDS011;7114;51.100;13.998;2023-05-01T03:41:33;120.65;;;59.78;;
14076;SDS011;7114;51.100;13.998;2023-05-01T03:43:59;110.95;;;56.15;;
14076;SDS011;7114;51.100;13.998;2023-05-01T03:46:26;98.03;;;50.10;;
14076;SDS011;7114;51.100;13.998;2023-05-01T03:48:52;99.07;;;49.97;;
14076;SDS011;7114;51.100;13.998;2023-05-01T03:51:20;91.13;;;49.33;;
14076;SDS011;7114;51.100;13.998;2023-05-01T03:53:46;100.72;;;50.10;;
14076;SDS011;7114;51.100;13.998;2023-05-01T03:56:12;102.45;;;49.97;;
14076;SDS011;7114;51.100;13.998;2023-05-01T03:58:38;94.25;;;47.38;;
14076;SDS011;7114;51.100;13.998;2023-05-01T04:01:05;93.38;;;47.78;;
14076;SDS011;7114;51.100;13.998;2023-05-01T04:03:31;90.87;;;45.30;;
14076;SDS011;7114;51.100;13.998;2023-05-01T04:05:57;91.13;;;47.10;;
14076;SDS011;7114;51.100;13.998;2023-05-01T04:08:25;92.05;;;47.92;;
14076;SDS011;7114;51.100;13.998;2023-05-01T04:10:51;88.72;;;45.88;;
14076;SDS011;7114;51.100;13.998;2023-05-01T04:13:17;80.28;;;44.10;;
14076;SDS011;7114;51.100;13.998;2023-05-01T04:15:44;84.07;;;42.23;;
14076;SDS011;7114;51.100;13.998;2023-05-01T04:18:11;83.97;;;43.03;;
14076;SDS011;7114;51.100;13.998;2023-05-01T04:20:37;84.32;;;44.65;;
14076;SDS011;7114;51.100;13.998;2023-05-01T04:23:04;84.90;;;45.15;;
14076;SDS011;7114;51.100;13.998;2023-05-01T04:25:31;88.57;;;46.15;;
14076;SDS011;7114;51.100;13.998;2023-05-01T04:27:58;89.63;;;46.07;;
14076;SDS011;7114;51.100;13.998;2023-05-01T04:30:24;91.07;;;47.03;;
14076;SDS011;7114;51.100;13.998;2023-05-01T04:32:50;95.03;;;47.70;;
14076;SDS011;7114;51.100;13.998;2023-05-01T04:35:16;95.38;;;48.92;;
14076;SDS011;7114;51.100;13.998;2023-05-01T04:37:43;92.70;;;48.03;;
14076;SDS011;7114;51.100;13.998;2023-05-01T04:40:10;85.40;;;47.03;;
14076;SDS011;7114;51.100;13.998;2023-05-01T04:42:38;85.80;;;45.50;;
14076;SDS011;7114;51.100;13.998;2023-05-01T04:45:05;89.90;;;45.67;;
14076;SDS011;7114;51.100;13.998;2023-05-01T04:47:31;90.68;;;45.75;;
14076;SDS011;7114;51.100;13.998;2023-05-01T04:49:58;80.97;;;43.15;;
14076;SDS011;7114;51.100;13.998;2023-05-01T04:52:24;72.13;;;39.37;;
14076;SDS011;7114;51.100;13.998;2023-05-01T04:54:50;73.45;;;37.17;;
14076;SDS011;7114;51.100;13.998;2023-05-01T04:57:16;63.75;;;35.33;;
14076;SDS011;7114;51.100;13.998;2023-05-01T04:59:44;62.42;;;33.90;;
14076;SDS011;7114;51.100;13.998;2023-05-01T05:02:11;60.08;;;32.50;;
14076;SDS011;7114;51.100;13.998;2023-05-01T05:04:37;56.40;;;30.13;;
14076;SDS011;7114;51.100;13.998;2023-05-01T05:07:04;60.83;;;31.92;;
14076;SDS011;7114;51.100;13.998;2023-05-01T05:09:30;57.05;;;30.98;;
14076;SDS011;7114;51.100;13.998;2023-05-01T05:11:56;57.00;;;30.15;;
14076;SDS011;7114;51.100;13.998;2023-05-01T05:14:23;55.42;;;31.23;;
14076;SDS011;7114;51.100;13.998;2023-05-01T05:16:50;58.97;;;33.37;;
14076;SDS011;7114;51.100;13.998;2023-05-01T05:19:16;62.05;;;33.67;;
14076;SDS011;7114;51.100;13.998;2023-05-01T05:21:43;61.83;;;33.38;;
14076;SDS011;7114;51.100;13.998;2023-05-01T05:24:09;63.65;;;33.60;;
14076;SDS011;7114;51.100;13.998;2023-05-01T05:26:35;60.92;;;33.65;;
14076;SDS011;7114;51.100;13.998;2023-05-01T05:29:02;56.97;;;32.27;;
14076;SDS011;7114;51.100;13.998;2023-05-01T05:31:28;53.25;;;29.05;;
14076;SDS011;7114;51.100;13.998;2023-05-01T05:33:56;50.60;;;27.67;;
14076;SDS011;7114;51.100;13.998;2023-05-01T05:36:22;49.05;;;27.42;;
14076;SDS011;7114;51.100;13.998;2023-05-01T05:38:48;48.40;;;25.55;;
14076;SDS011;7114;51.100;13.998;2023-05-01T05:41:15;44.77;;;24.03;;
14076;SDS011;7114;51.100;13.998;2023-05-01T05:43:41;42.47;;;23.10;;
14076;SDS011;7114;51.100;13.998;2023-05-01T05:46:07;39.22;;;21.52;;
14076;SDS011;7114;51.100;13.998;2023-05-01T05:48:34;40.38;;;20.77;;
14076;SDS011;7114;51.100;13.998;2023-05-01T05:51:01;40.35;;;20.17;;
14076;SDS011;7114;51.100;13.998;2023-05-01T05:53:28;30.17;;;16.40;;
14076;SDS011;7114;51.100;13.998;2023-05-01T05:55:54;26.65;;;13.10;;
14076;SDS011;7114;51.100;13.998;2023-05-01T05:58:20;26.05;;;12.27;;
14076;SDS011;7114;51.100;13.998;2023-05-01T06:00:48;28.08;;;12.70;;
14076;SDS011;7114;51.100;13.998;2023-05-01T06:03:16;32.25;;;12.65;;
14076;SDS011;7114;51.100;13.998;2023-05-01T06:05:43;26.00;;;11.63;;
14076;SDS011;7114;51.100;13.998;2023-05-01T06:08:11;22.05;;;9.63;;
14076;SDS011;7114;51.100;13.998;2023-05-01T06:10:38;20.83;;;9.05;;
14076;SDS011;7114;51.100;13.998;2023-05-01T06:13:07;12.98;;;5.88;;
14076;SDS011;7114;51.100;13.998;2023-05-01T06:15:34;15.18;;;5.97;;
14076;SDS011;7114;51.100;13.998;2023-05-01T06:18:00;12.53;;;5.50;;
14076;SDS011;7114;51.100;13.998;2023-05-01T06:20:26;13.60;;;5.40;;
14076;SDS011;7114;51.100;13.998;2023-05-01T06:22:53;13.27;;;5.45;;
14076;SDS011;7114;51.100;13.998;2023-05-01T06:25:20;13.02;;;5.90;;
14076;SDS011;7114;51.100;13.998;2023-05-01T06:27:47;12.52;;;4.85;;
14076;SDS011;7114;51.100;13.998;2023-05-01T06:30:14;12.53;;;5.30;;
14076;SDS011;7114;51.100;13.998;2023-05-01T06:32:40;10.30;;;4.43;;
14076;SDS011;7114;51.100;13.998;2023-05-01T06:35:07;11.50;;;4.30;;
14076;SDS011;7114;51.100;13.998;2023-05-01T06:37:34;11.23;;;4.43;;
14076;SDS011;7114;51.100;13.998;2023-05-01T06:40:02;10.93;;;4.43;;
14076;SDS011;7114;51.100;13.998;2023-05-01T06:42:30;10.70;;;4.47;;
14076;SDS011;7114;51.100;13.998;2023-05-01T06:44:56;13.93;;;4.53;;
14076;SDS011;7114;51.100;13.998;2023-05-01T06:47:23;11.68;;;4.50;;
14076;SDS011;7114;51.100;13.998;2023-05-01T06:49:49;10.55;;;4.45;;
14076;SDS011;7114;51.100;13.998;2023-05-01T06:52:15;11.77;;;4.70;;
14076;SDS011;7114;51.100;13.998;2023-05-01T06:54:41;10.10;;;4.30;;
14076;SDS011;7114;51.100;13.998;2023-05-01T06:57:08;10.50;;;4.50;;
14076;SDS011;7114;51.100;13.998;2023-05-01T06:59:35;9.77;;;4.22;;
14076;SDS011;7114;51.100;13.998;2023-05-01T07:02:01;9.55;;;3.85;;
14076;SDS011;7114;51.100;13.998;2023-05-01T07:04:28;10.45;;;4.55;;
14076;SDS011;7114;51.100;13.998;2023-05-01T07:06:54;10.83;;;4.33;;
14076;SDS011;7114;51.100;13.998;2023-05-01T07:09:20;10.18;;;4.28;;
14076;SDS011;7114;51.100;13.998;2023-05-01T07:11:46;9.02;;;3.75;;
14076;SDS011;7114;51.100;13.998;2023-05-01T07:14:13;10.07;;;3.72;;
14076;SDS011;7114;51.100;13.998;2023-05-01T07:16:41;11.15;;;4.47;;
14076;SDS011;7114;51.100;13.998;2023-05-01T07:19:07;10.83;;;4.30;;
14076;SDS011;7114;51.100;13.998;2023-05-01T07:21:33;11.70;;;4.25;;
14076;SDS011;7114;51.100;13.998;2023-05-01T07:24:00;9.13;;;3.83;;
14076;SDS011;7114;51.100;13.998;2023-05-01T07:26:26;9.70;;;3.83;;
14076;SDS011;7114;51.100;13.998;2023-05-01T07:28:52;8.57;;;3.80;;
14076;SDS011;7114;51.100;13.998;2023-05-01T07:31:19;10.03;;;3.97;;
14076;SDS011;7114;51.100;13.998;2023-05-01T07:33:47;10.55;;;4.40;;
14076;SDS011;7114;51.100;13.998;2023-05-01T07:36:14;9.93;;;4.00;;
14076;SDS011;7114;51.100;13.998;2023-05-01T07:38:42;9.05;;;3.80;;
14076;SDS011;7114;51.100;13.998;2023-05-01T07:41:09;9.20;;;3.80;;
14076;SDS011;7114;51.100;13.998;2023-05-01T07:43:35;8.87;;;4.23;;
14076;SDS011;7114;51.100;13.998;2023-05-01T07:46:01;8.88;;;3.75;;
14076;SDS011;7114;51.100;13.998;2023-05-01T07:48:29;10.57;;;4.07;;
14076;SDS011;7114;51.100;13.998;2023-05-01T07:51:01;8.55;;;3.70;;
14076;SDS011;7114;51.100;13.998;2023-05-01T07:53:27;9.55;;;4.22;;
14076;SDS011;7114;51.100;13.998;2023-05-01T07:55:53;9.00;;;4.03;;
14076;SDS011;7114;51.100;13.998;2023-05-01T07:58:30;7.72;;;3.58;;
14076;SDS011;7114;51.100;13.998;2023-05-01T08:00:56;7.30;;;3.67;;
14076;SDS011;7114;51.100;13.998;2023-05-01T08:03:22;8.68;;;3.90;;
14076;SDS011;7114;51.100;13.998;2023-05-01T08:05:49;9.07;;;4.20;;
14076;SDS011;7114;51.100;13.998;2023-05-01T08:08:16;9.87;;;3.90;;
14076;SDS011;7114;51.100;13.998;2023-05-01T08:10:45;8.57;;;3.78;;
14076;SDS011;7114;51.100;13.998;2023-05-01T08:13:11;7.78;;;3.58;;
14076;SDS011;7114;51.100;13.998;2023-05-01T08:15:37;9.15;;;3.90;;
14076;SDS011;7114;51.100;13.998;2023-05-01T08:18:06;9.60;;;3.90;;
14076;SDS011;7114;51.100;13.998;2023-05-01T08:20:34;8.90;;;3.70;;
14076;SDS011;7114;51.100;13.998;2023-05-01T08:23:00;8.95;;;4.28;;
14076;SDS011;7114;51.100;13.998;2023-05-01T08:25:28;8.70;;;3.78;;
14076;SDS011;7114;51.100;13.998;2023-05-01T08:27:55;7.72;;;3.70;;
14076;SDS011;7114;51.100;13.998;2023-05-01T08:30:22;8.27;;;3.80;;
14076;SDS011;7114;51.100;13.998;2023-05-01T08:32:48;7.87;;;3.90;;
14076;SDS011;7114;51.100;13.998;2023-05-01T08:35:14;7.57;;;3.70;;
14076;SDS011;7114;51.100;13.998;2023-05-01T08:37:41;7.18;;;3.60;;
14076;SDS011;7114;51.100;13.998;2023-05-01T08:40:07;7.50;;;3.25;;
14076;SDS011;7114;51.100;13.998;2023-05-01T08:42:35;7.88;;;3.47;;
14076;SDS011;7114;51.100;13.998;2023-05-01T08:45:02;7.23;;;3.83;;
14076;SDS011;7114;51.100;13.998;2023-05-01T08:47:30;10.07;;;3.63;;
14076;SDS011;7114;51.100;13.998;2023-05-01T08:49:56;7.47;;;4.05;;
14076;SDS011;7114;51.100;13.998;2023-05-01T08:52:24;8.13;;;3.70;;
14076;SDS011;7114;51.100;13.998;2023-05-01T08:54:52;8.35;;;3.80;;
14076;SDS011;7114;51.100;13.998;2023-05-01T08:57:20;7.87;;;3.90;;
14076;SDS011;7114;51.100;13.998;2023-05-01T08:59:48;8.27;;;4.18;;
14076;SDS011;7114;51.100;13.998;2023-05-01T09:02:17;10.80;;;4.43;;
14076;SDS011;7114;51.100;13.998;2023-05-01T09:04:43;8.75;;;4.55;;
14076;SDS011;7114;51.100;13.998;2023-05-01T09:07:10;7.88;;;4.60;;
14076;SDS011;7114;51.100;13.998;2023-05-01T09:09:36;9.00;;;4.50;;
14076;SDS011;7114;51.100;13.998;2023-05-01T09:12:05;9.32;;;4.40;;
14076;SDS011;7114;51.100;13.998;2023-05-01T09:14:35;9.70;;;5.47;;
14076;SDS011;7114;51.100;13.998;2023-05-01T09:17:03;8.88;;;4.70;;
14076;SDS011;7114;51.100;13.998;2023-05-01T09:19:29;8.70;;;4.75;;
14076;SDS011;7114;51.100;13.998;2023-05-01T09:21:56;8.23;;;4.80;;
14076;SDS011;7114;51.100;13.998;2023-05-01T09:24:22;9.13;;;4.50;;
14076;SDS011;7114;51.100;13.998;2023-05-01T09:26:49;9.13;;;5.00;;
14076;SDS011;7114;51.100;13.998;2023-05-01T09:29:29;8.93;;;5.40;;
14076;SDS011;7114;51.100;13.998;2023-05-01T09:32:13;8.80;;;5.30;;
14076;SDS011;7114;51.100;13.998;2023-05-01T09:34:40;8.60;;;5.33;;
14076;SDS011;7114;51.100;13.998;2023-05-01T09:37:07;10.68;;;5.05;;
14076;SDS011;7114;51.100;13.998;2023-05-01T09:39:34;8.55;;;5.75;;
14076;SDS011;7114;51.100;13.998;2023-05-01T09:42:01;9.05;;;5.68;;
14076;SDS011;7114;51.100;13.998;2023-05-01T09:44:27;9.88;;;6.30;;
14076;SDS011;7114;51.100;13.998;2023-05-01T09:46:53;10.70;;;5.30;;
14076;SDS011;7114;51.100;13.998;2023-05-01T09:49:29;8.32;;;5.03;;
14076;SDS011;7114;51.100;13.998;2023-05-01T09:52:12;8.05;;;5.45;;
14076;SDS011;7114;51.100;13.998;2023-05-01T09:54:38;9.40;;;5.50;;
14076;SDS011;7114;51.100;13.998;2023-05-01T09:57:05;8.27;;;5.55;;
14076;SDS011;7114;51.100;13.998;2023-05-01T09:59:31;9.90;;;5.40;;
14076;SDS011;7114;51.100;13.998;2023-05-01T10:01:59;10.13;;;5.68;;
14076;SDS011;7114;51.100;13.998;2023-05-01T10:04:30;9.25;;;5.68;;
14076;SDS011;7114;51.100;13.998;2023-05-01T10:06:56;8.63;;;5.88;;
14076;SDS011;7114;51.100;13.998;2023-05-01T10:09:26;9.50;;;6.28;;
14076;SDS011;7114;51.100;13.998;2023-05-01T10:11:53;7.90;;;5.83;;
14076;SDS011;7114;51.100;13.998;2023-05-01T10:14:21;10.77;;;6.43;;
14076;SDS011;7114;51.100;13.998;2023-05-01T10:16:49;9.45;;;6.30;;
14076;SDS011;7114;51.100;13.998;2023-05-01T10:19:16;8.63;;;5.70;;
14076;SDS011;7114;51.100;13.998;2023-05-01T10:21:44;8.25;;;5.53;;
14076;SDS011;7114;51.100;13.998;2023-05-01T10:24:11;10.33;;;5.57;;
14076;SDS011;7114;51.100;13.998;2023-05-01T10:26:39;8.52;;;4.95;;
14076;SDS011;7114;51.100;13.998;2023-05-01T10:29:07;8.43;;;5.20;;
14076;SDS011;7114;51.100;13.998;2023-05-01T10:31:33;7.93;;;4.78;;
14076;SDS011;7114;51.100;13.998;2023-05-01T10:34:00;9.57;;;5.05;;
14076;SDS011;7114;51.100;13.998;2023-05-01T10:36:31;10.00;;;5.40;;
14076;SDS011;7114;51.100;13.998;2023-05-01T10:39:02;8.48;;;5.15;;
14076;SDS011;7114;51.100;13.998;2023-05-01T10:44:25;7.88;;;5.65;;
14076;SDS011;7114;51.100;13.998;2023-05-01T10:46:52;8.52;;;4.70;;
14076;SDS011;7114;51.100;13.998;2023-05-01T10:49:19;7.80;;;5.20;;
14076;SDS011;7114;51.100;13.998;2023-05-01T10:51:58;8.52;;;4.95;;
14076;SDS011;7114;51.100;13.998;2023-05-01T10:54:26;7.65;;;4.65;;
14076;SDS011;7114;51.100;13.998;2023-05-01T10:56:53;7.57;;;4.72;;
14076;SDS011;7114;51.100;13.998;2023-05-01T10:59:21;7.45;;;4.65;;
14076;SDS011;7114;51.100;13.998;2023-05-01T11:01:48;11.27;;;4.60;;
14076;SDS011;7114;51.100;13.998;2023-05-01T11:07:13;7.65;;;4.88;;
14076;SDS011;7114;51.100;13.998;2023-05-01T11:09:43;7.53;;;5.18;;
14076;SDS011;7114;51.100;13.998;2023-05-01T11:12:11;9.75;;;4.90;;
14076;SDS011;7114;51.100;13.998;2023-05-01T11:17:46;8.43;;;5.53;;
14076;SDS011;7114;51.100;13.998;2023-05-01T11:20:44;7.60;;;5.30;;
14076;SDS011;7114;51.100;13.998;2023-05-01T11:23:16;7.88;;;5.15;;
14076;SDS011;7114;51.100;13.998;2023-05-01T11:25:44;8.45;;;4.65;;
14076;SDS011;7114;51.100;13.998;2023-05-01T11:28:12;8.53;;;4.97;;
14076;SDS011;7114;51.100;13.998;2023-05-01T11:30:44;9.02;;;4.88;;
14076;SDS011;7114;51.100;13.998;2023-05-01T11:33:10;7.90;;;4.70;;
14076;SDS011;7114;51.100;13.998;2023-05-01T11:35:36;8.60;;;5.30;;
14076;SDS011;7114;51.100;13.998;2023-05-01T11:38:03;8.85;;;5.28;;
14076;SDS011;7114;51.100;13.998;2023-05-01T11:40:30;8.53;;;4.80;;
14076;SDS011;7114;51.100;13.998;2023-05-01T11:43:03;8.98;;;4.38;;
14076;SDS011;7114;51.100;13.998;2023-05-01T11:45:30;9.18;;;4.70;;
14076;SDS011;7114;51.100;13.998;2023-05-01T11:47:57;8.98;;;4.28;;
14076;SDS011;7114;51.100;13.998;2023-05-01T11:50:30;7.85;;;4.38;;
14076;SDS011;7114;51.100;13.998;2023-05-01T11:52:57;7.97;;;3.90;;
14076;SDS011;7114;51.100;13.998;2023-05-01T11:55:29;7.47;;;4.15;;
14076;SDS011;7114;51.100;13.998;2023-05-01T11:57:56;7.80;;;4.70;;
14076;SDS011;7114;51.100;13.998;2023-05-01T12:00:28;7.70;;;4.93;;
14076;SDS011;7114;51.100;13.998;2023-05-01T12:02:56;7.68;;;4.05;;
14076;SDS011;7114;51.100;13.998;2023-05-01T12:05:23;6.90;;;4.80;;
14076;SDS011;7114;51.100;13.998;2023-05-01T12:07:50;10.38;;;4.85;;
14076;SDS011;7114;51.100;13.998;2023-05-01T12:10:16;7.90;;;4.80;;
14076;SDS011;7114;51.100;13.998;2023-05-01T12:12:43;6.95;;;4.60;;
14076;SDS011;7114;51.100;13.998;2023-05-01T12:15:10;8.35;;;4.53;;
14076;SDS011;7114;51.100;13.998;2023-05-01T12:17:37;7.50;;;4.53;;
14076;SDS011;7114;51.100;13.998;2023-05-01T12:20:04;8.32;;;4.82;;
14076;SDS011;7114;51.100;13.998;2023-05-01T12:22:32;7.75;;;4.80;;
14076;SDS011;7114;51.100;13.998;2023-05-01T12:24:58;6.82;;;4.60;;
14076;SDS011;7114;51.100;13.998;2023-05-01T12:27:25;8.35;;;4.40;;
14076;SDS011;7114;51.100;13.998;2023-05-01T12:29:51;6.47;;;4.07;;
14076;SDS011;7114;51.100;13.998;2023-05-01T12:32:18;6.57;;;4.22;;
14076;SDS011;7114;51.100;13.998;2023-05-01T12:34:56;6.35;;;4.50;;
14076;SDS011;7114;51.100;13.998;2023-05-01T12:37:28;6.68;;;4.47;;
14076;SDS011;7114;51.100;13.998;2023-05-01T12:39:55;7.00;;;4.35;;
14076;SDS011;7114;51.100;13.998;2023-05-01T12:42:22;6.50;;;3.53;;
14076;SDS011;7114;51.100;13.998;2023-05-01T12:44:48;7.00;;;3.90;;
14076;SDS011;7114;51.100;13.998;2023-05-01T12:47:23;6.43;;;4.20;;
14076;SDS011;7114;51.100;13.998;2023-05-01T12:49:59;7.07;;;4.20;;
14076;SDS011;7114;51.100;13.998;2023-05-01T12:52:28;8.23;;;4.30;;
14076;SDS011;7114;51.100;13.998;2023-05-01T12:55:00;6.87;;;4.00;;
14076;SDS011;7114;51.100;13.998;2023-05-01T12:57:27;7.82;;;4.10;;
14076;SDS011;7114;51.100;13.998;2023-05-01T12:59:57;6.53;;;4.47;;
14076;SDS011;7114;51.100;13.998;2023-05-01T13:02:28;6.80;;;4.05;;
14076;SDS011;7114;51.100;13.998;2023-05-01T13:05:05;6.72;;;3.45;;
14076;SDS011;7114;51.100;13.998;2023-05-01T13:07:32;5.90;;;3.30;;
14076;SDS011;7114;51.100;13.998;2023-05-01T13:10:00;6.90;;;3.88;;
14076;SDS011;7114;51.100;13.998;2023-05-01T13:12:30;5.78;;;3.63;;
14076;SDS011;7114;51.100;13.998;2023-05-01T13:14:56;8.82;;;4.60;;
14076;SDS011;7114;51.100;13.998;2023-05-01T13:17:23;14.63;;;12.18;;
14076;SDS011;7114;51.100;13.998;2023-05-01T13:19:54;404.83;;;260.87;;
14076;SDS011;7114;51.100;13.998;2023-05-01T13:22:28;198.32;;;142.27;;
14076;SDS011;7114;51.100;13.998;2023-05-01T13:24:55;41.53;;;29.88;;
14076;SDS011;7114;51.100;13.998;2023-05-01T13:27:21;14.05;;;12.55;;
14076;SDS011;7114;51.100;13.998;2023-05-01T13:29:50;6.57;;;3.83;;
14076;SDS011;7114;51.100;13.998;2023-05-01T13:32:19;16.20;;;8.77;;
14076;SDS011;7114;51.100;13.998;2023-05-01T13:34:45;7.95;;;4.15;;
14076;SDS011;7114;51.100;13.998;2023-05-01T13:37:12;6.65;;;3.85;;
14076;SDS011;7114;51.100;13.998;2023-05-01T13:39:40;5.97;;;3.10;;
14076;SDS011;7114;51.100;13.998;2023-05-01T13:42:07;14.48;;;3.30;;
14076;SDS011;7114;51.100;13.998;2023-05-01T13:44:34;8.43;;;3.23;;
14076;SDS011;7114;51.100;13.998;2023-05-01T13:47:08;8.80;;;4.20;;
14076;SDS011;7114;51.100;13.998;2023-05-01T13:49:35;14.18;;;6.82;;
14076;SDS011;7114;51.100;13.998;2023-05-01T13:52:06;8.65;;;4.63;;
14076;SDS011;7114;51.100;13.998;2023-05-01T13:54:32;6.90;;;3.78;;
14076;SDS011;7114;51.100;13.998;2023-05-01T13:57:01;7.27;;;3.30;;
14076;SDS011;7114;51.100;13.998;2023-05-01T13:59:29;7.47;;;2.92;;
14076;SDS011;7114;51.100;13.998;2023-05-01T14:01:57;6.65;;;3.20;;
14076;SDS011;7114;51.100;13.998;2023-05-01T14:04:24;7.97;;;3.38;;
14076;SDS011;7114;51.100;13.998;2023-05-01T14:06:50;7.53;;;2.92;;
14076;SDS011;7114;51.100;13.998;2023-05-01T14:09:17;6.83;;;3.00;;
14076;SDS011;7114;51.100;13.998;2023-05-01T14:11:44;6.00;;;3.08;;
14076;SDS011;7114;51.100;13.998;2023-05-01T14:14:13;6.10;;;3.47;;
14076;SDS011;7114;51.100;13.998;2023-05-01T14:16:41;5.90;;;2.55;;
14076;SDS011;7114;51.100;13.998;2023-05-01T14:19:13;5.82;;;2.47;;
14076;SDS011;7114;51.100;13.998;2023-05-01T14:21:40;6.33;;;2.60;;
14076;SDS011;7114;51.100;13.998;2023-05-01T14:24:15;5.53;;;2.60;;
14076;SDS011;7114;51.100;13.998;2023-05-01T14:26:43;7.20;;;2.92;;
14076;SDS011;7114;51.100;13.998;2023-05-01T14:29:14;6.18;;;2.55;;
14076;SDS011;7114;51.100;13.998;2023-05-01T14:31:51;6.10;;;3.13;;
14076;SDS011;7114;51.100;13.998;2023-05-01T14:34:19;5.70;;;2.50;;
14076;SDS011;7114;51.100;13.998;2023-05-01T14:36:46;5.40;;;2.50;;
14076;SDS011;7114;51.100;13.998;2023-05-01T14:39:12;6.78;;;2.60;;
14076;SDS011;7114;51.100;13.998;2023-05-01T14:41:40;6.53;;;2.53;;
14076;SDS011;7114;51.100;13.998;2023-05-01T14:44:09;6.53;;;2.70;;